map of MKE home
MKE - Airport
Location
City:  Milwaukee, Wisconsin, United States
Name:General Mitchell International Airport
ICAO:KMKE
IATA:MKE
FAA LID:MKE

Details
Type:Airport (Part 139 Class I)
Use:Public/Civil, International (customs landing rights)
Latitude:4256'49"N (42.946944)
Longitude:8753'49"W (-87.897055)
Datum:WGS 1984
Elevation:728 ft (222 m)
Variation:3.95W (WMM2015 magnetic declination)
-0.05 annual change
Runways:5
Longest:9990 × 200 ft (3045 × 61 m), paved

Time
Time Zone:UTC-6 (DST-5)
Local Time:

Weather
METAR:KMKE 181852Z 24007KT 10SM FEW027 02/M09 A3019 RMK AO2 SLP232 T00221094
TAF:KMKE 181720Z 1818/1924 27008KT P6SM SKC
FM192000 28007KT P6SM BKN040

Related Locations
Nearby:
Farthest:YAUG: 11064 mi / 17807 km
Augusta [Augusta Airport], WA, AU

Find:

   beyond  
but within

Other Information
Maps:
Delays:
NOTAMs:
Links:
Sources:

  
  • flag of United States
  • flag of Wisconsin
  

Airport Diagram

Airport diagram for MKE

Airport diagram PDF

Sectional Chart

Flight Planning
at skyvector.com

Satellite Image

Google Maps Satellite view

 

Copyright © 2004-2018 Karl L. Swartz. All rights reserved.
The Great Circle Mapper name and logo are trademarks of the Great Circle Mapper.
All other trademarks mentioned herein belong to their respective owners.
Please see credits for attibutions and further copyright information.

  Follow gcmap on Facebook Follow gcmap on Twitter Follow gcmap on Google+ GCmap on LinkedIn

hCard Microformat

Geo Microformat